Time;durP1;ratioP1;P1;durP2;ratioP2;P2;SDS_P1;SDS_P2;PMS_P1;PMS_P2;Temp;Humidity;BMP_temperature;BMP_pressure;BME280_temperature;BME280_humidity;BME280_pressure;Samples;Min_cycle;Max_cycle;Signal;HPM_P1;HPM_P2
2021/07/14 00:02:23;;;;;;;167.35;88.68;;;19.40;99.90;;;;;;5015639;28;20033;-69
2021/07/14 00:04:49;;;;;;;188.50;95.30;;;19.30;99.90;;;;;;5016344;28;20048;-70
2021/07/14 00:07:14;;;;;;;203.55;96.20;;;19.30;99.90;;;;;;5025139;28;20037;-70
2021/07/14 00:09:40;;;;;;;203.02;94.28;;;19.20;99.90;;;;;;5010352;28;20038;-70
2021/07/14 00:12:08;;;;;;;224.07;98.00;;;19.20;99.90;;;;;;5010544;28;20069;-70
2021/07/14 00:22:28;;;;;;;332.17;120.60;;;19.30;99.90;;;;;;5013100;28;20271;-69
2021/07/14 00:24:53;;;;;;;262.90;110.85;;;19.10;99.90;;;;;;5011556;28;20061;-69
2021/07/14 00:27:19;;;;;;;338.80;123.90;;;19.30;99.90;;;;;;5019445;28;20025;-69
2021/07/14 00:30:08;;;;;;;321.48;117.30;;;19.30;99.90;;;;;;5020248;28;20069;-69
2021/07/14 00:32:34;;;;;;;391.23;127.43;;;19.20;99.90;;;;;;5009029;28;20096;-69
2021/07/14 00:34:59;;;;;;;335.95;115.85;;;19.20;99.90;;;;;;5008203;28;20026;-69
2021/07/14 00:37:25;;;;;;;314.30;113.07;;;19.10;99.90;;;;;;5009343;28;20028;-69
2021/07/14 00:39:56;;;;;;;289.73;112.80;;;19.10;99.90;;;;;;5011507;28;20022;-68
2021/07/14 00:42:25;;;;;;;178.32;89.45;;;19.10;99.90;;;;;;5017464;28;20100;-68
2021/07/14 00:44:51;;;;;;;297.48;110.60;;;19.00;99.90;;;;;;5015849;28;20032;-68
2021/07/14 00:47:25;;;;;;;286.45;107.35;;;19.10;99.90;;;;;;5026434;28;20025;-69
2021/07/14 00:49:51;;;;;;;321.65;107.55;;;19.20;99.90;;;;;;5010078;28;20029;-68
2021/07/14 00:52:18;;;;;;;133.52;57.40;;;19.20;99.90;;;;;;5019176;28;20524;-68
2021/07/14 00:54:43;;;;;;;110.38;50.15;;;19.20;99.90;;;;;;5016191;28;20025;-68
2021/07/14 00:57:09;;;;;;;100.88;44.22;;;18.70;99.90;;;;;;5021207;28;20083;-68
2021/07/14 00:59:35;;;;;;;64.55;33.45;;;19.10;99.90;;;;;;5020241;28;20396;-68
2021/07/14 01:02:01;;;;;;;53.50;30.00;;;19.10;99.90;;;;;;4994609;28;20659;-68
2021/07/14 01:04:29;;;;;;;64.43;31.35;;;19.10;99.90;;;;;;5012567;28;20037;-68
2021/07/14 01:07:05;;;;;;;40.50;24.55;;;19.10;99.90;;;;;;5026544;28;20061;-68
2021/07/14 01:09:50;;;;;;;51.63;26.38;;;19.20;99.90;;;;;;5007140;28;20033;-68
2021/07/14 01:12:24;;;;;;;30.83;18.43;;;19.10;99.90;;;;;;5023791;28;20040;-68
2021/07/14 01:15:04;;;;;;;34.63;21.02;;;19.10;99.90;;;;;;5011233;28;20025;-68
2021/07/14 01:17:36;;;;;;;33.45;20.52;;;19.10;99.90;;;;;;5014644;28;20037;-68
2021/07/14 01:20:27;;;;;;;18.80;12.80;;;19.10;99.90;;;;;;5011168;28;20018;-68
2021/07/14 01:23:07;;;;;;;23.10;16.48;;;18.90;99.90;;;;;;5008209;28;20037;-68
2021/07/14 01:25:44;;;;;;;27.90;17.50;;;19.00;99.90;;;;;;5005792;28;20480;-68
2021/07/14 01:28:09;;;;;;;17.70;12.27;;;19.00;99.90;;;;;;5014191;28;20409;-68
2021/07/14 01:30:35;;;;;;;19.40;14.18;;;18.90;99.90;;;;;;4995749;28;20037;-68
2021/07/14 01:33:00;;;;;;;25.17;14.45;;;18.90;99.90;;;;;;5008949;28;20030;-68
2021/07/14 01:35:29;;;;;;;28.17;15.00;;;19.00;99.90;;;;;;5025104;28;20036;-68
2021/07/14 01:37:55;;;;;;;37.63;16.50;;;18.90;99.90;;;;;;5017434;28;20026;-68
2021/07/14 01:40:21;;;;;;;25.15;16.75;;;18.90;99.90;;;;;;5025403;28;20037;-68
2021/07/14 01:42:54;;;;;;;22.48;15.93;;;19.00;99.90;;;;;;5024943;28;20124;-68
2021/07/14 01:45:20;;;;;;;22.60;12.68;;;19.00;99.90;;;;;;4995858;28;20132;-68
2021/07/14 01:47:47;;;;;;;19.70;13.27;;;19.00;99.90;;;;;;5018889;28;20282;-68
2021/07/14 01:50:13;;;;;;;19.65;14.35;;;18.90;99.90;;;;;;5013838;28;20105;-68
2021/07/14 01:52:38;;;;;;;22.25;15.57;;;18.90;99.90;;;;;;5015423;28;20157;-68
2021/07/14 01:55:05;;;;;;;26.92;15.80;;;18.80;99.90;;;;;;5013061;28;20040;-68
2021/07/14 01:57:31;;;;;;;16.50;11.55;;;18.80;99.90;;;;;;5021785;28;20665;-68
2021/07/14 01:59:57;;;;;;;11.55;9.50;;;18.80;99.90;;;;;;5029053;28;20030;-68
2021/07/14 02:02:25;;;;;;;13.52;9.82;;;18.80;99.90;;;;;;5010913;28;20029;-68
2021/07/14 02:04:51;;;;;;;10.60;8.98;;;18.80;99.90;;;;;;5011364;28;20026;-68
2021/07/14 02:07:24;;;;;;;14.90;11.57;;;18.70;99.90;;;;;;5020625;28;20051;-68
2021/07/14 02:09:50;;;;;;;11.77;10.23;;;18.70;99.90;;;;;;5011221;28;20164;-68
2021/07/14 02:12:19;;;;;;;18.20;12.80;;;18.70;99.90;;;;;;5016068;28;20116;-68
2021/07/14 02:15:04;;;;;;;22.25;15.15;;;18.70;99.90;;;;;;5019744;28;20038;-68
2021/07/14 02:17:33;;;;;;;24.30;17.05;;;18.60;99.90;;;;;;5020199;28;20033;-68
2021/07/14 02:20:17;;;;;;;13.73;11.70;;;18.60;99.90;;;;;;5012554;28;20104;-68
2021/07/14 02:22:43;;;;;;;21.42;16.02;;;18.60;99.90;;;;;;5011798;28;20046;-68
2021/07/14 02:25:34;;;;;;;20.45;15.15;;;18.60;99.90;;;;;;5012720;28;20037;-68
2021/07/14 02:28:01;;;;;;;24.17;17.15;;;18.60;99.90;;;;;;5006203;28;20140;-68
2021/07/14 02:30:26;;;;;;;52.55;29.35;;;18.60;99.90;;;;;;5010909;28;20033;-68
2021/07/14 02:32:59;;;;;;;68.18;37.10;;;18.70;99.90;;;;;;5030436;28;20032;-68
2021/07/14 02:35:25;;;;;;;70.20;38.08;;;18.70;99.90;;;;;;5002036;28;20025;-68
2021/07/14 02:38:08;;;;;;;88.93;42.92;;;18.70;99.90;;;;;;5011872;28;20052;-68
2021/07/14 02:40:38;;;;;;;101.45;56.28;;;18.80;99.90;;;;;;5011169;28;20030;-68
2021/07/14 02:43:04;;;;;;;126.60;63.22;;;18.80;99.90;;;;;;5019732;28;20416;-68
2021/07/14 02:45:30;;;;;;;147.07;68.45;;;18.90;99.90;;;;;;5026006;28;20025;-68
2021/07/14 02:48:00;;;;;;;174.70;80.53;;;19.20;99.90;;;;;;5019559;28;20494;-68
2021/07/14 02:50:26;;;;;;;159.05;80.63;;;18.90;99.90;;;;;;5017222;28;20536;-68
2021/07/14 02:52:53;;;;;;;158.07;81.35;;;19.00;99.90;;;;;;5025676;28;20090;-68
2021/07/14 02:55:20;;;;;;;131.07;74.43;;;19.00;99.90;;;;;;5024278;28;20135;-68
2021/07/14 02:57:50;;;;;;;161.77;83.55;;;19.00;99.90;;;;;;5008860;28;20936;-69
2021/07/14 03:00:16;;;;;;;174.05;86.78;;;19.00;99.90;;;;;;5000586;28;20032;-68
2021/07/14 03:02:42;;;;;;;163.73;83.68;;;19.00;99.90;;;;;;5008825;28;20109;-68
2021/07/14 03:05:07;;;;;;;171.60;85.50;;;19.00;99.90;;;;;;5019122;28;20042;-68
2021/07/14 03:07:33;;;;;;;196.38;92.68;;;19.00;99.90;;;;;;5022507;28;20492;-68
2021/07/14 03:09:58;;;;;;;177.02;87.65;;;19.10;99.90;;;;;;5015666;28;20057;-68
2021/07/14 03:12:24;;;;;;;147.02;81.32;;;19.00;99.90;;;;;;5009633;28;20034;-68
2021/07/14 03:14:55;;;;;;;194.93;92.50;;;19.20;99.90;;;;;;5002476;28;20029;-68
2021/07/14 03:17:20;;;;;;;173.93;89.25;;;19.00;99.90;;;;;;5012682;28;20040;-68
2021/07/14 03:19:46;;;;;;;181.10;92.03;;;19.00;99.90;;;;;;5009554;28;20022;-69
2021/07/14 03:22:11;;;;;;;185.35;89.45;;;19.00;99.90;;;;;;5017515;28;20380;-70
2021/07/14 03:24:37;;;;;;;209.07;94.60;;;19.10;99.90;;;;;;5027177;28;20454;-69
2021/07/14 03:27:04;;;;;;;241.80;99.65;;;19.00;99.90;;;;;;5023096;28;20104;-69
2021/07/14 03:29:31;;;;;;;195.75;92.63;;;19.10;99.90;;;;;;5009530;28;20021;-69
2021/07/14 03:31:57;;;;;;;231.15;98.93;;;19.00;99.90;;;;;;5022040;28;20025;-69
2021/07/14 03:34:23;;;;;;;192.63;89.13;;;19.10;99.90;;;;;;5026509;28;20026;-69
2021/07/14 03:36:48;;;;;;;247.65;98.82;;;19.10;99.90;;;;;;5008357;28;20105;-69
2021/07/14 03:39:17;;;;;;;252.15;101.22;;;19.00;99.90;;;;;;5009399;28;20492;-69
2021/07/14 03:41:44;;;;;;;199.65;91.82;;;19.00;99.90;;;;;;5010439;28;20465;-69
2021/07/14 03:44:11;;;;;;;215.13;93.50;;;19.00;99.90;;;;;;5000411;28;20052;-69
2021/07/14 03:46:39;;;;;;;190.32;90.47;;;19.10;99.90;;;;;;4995134;28;20057;-69
2021/07/14 03:49:06;;;;;;;247.43;98.07;;;19.00;99.90;;;;;;5021796;28;20104;-69
2021/07/14 03:51:33;;;;;;;201.15;91.57;;;19.00;99.90;;;;;;5011806;28;20515;-69
2021/07/14 03:54:01;;;;;;;232.68;96.25;;;19.00;99.90;;;;;;5004940;28;20121;-69
2021/07/14 03:56:49;;;;;;;218.65;94.57;;;19.00;99.90;;;;;;5014286;28;20036;-69
2021/07/14 03:59:19;;;;;;;242.98;95.40;;;19.00;99.90;;;;;;5023988;28;20022;-69
2021/07/14 04:01:48;;;;;;;205.02;90.30;;;19.10;99.90;;;;;;5009068;28;20558;-69
2021/07/14 04:04:16;;;;;;;189.15;88.75;;;19.00;99.90;;;;;;5001558;28;20025;-69
2021/07/14 04:06:43;;;;;;;189.55;89.00;;;19.00;99.90;;;;;;5019320;28;20064;-69
2021/07/14 04:09:19;;;;;;;176.68;85.25;;;18.90;99.90;;;;;;5024945;28;20376;-69
2021/07/14 04:11:45;;;;;;;196.90;87.60;;;19.00;99.90;;;;;;5008511;28;20045;-69
2021/07/14 04:14:13;;;;;;;198.98;89.82;;;18.90;99.90;;;;;;5008863;28;20029;-69
2021/07/14 04:16:40;;;;;;;187.27;88.13;;;19.00;99.90;;;;;;5007587;28;20036;-69
2021/07/14 04:19:06;;;;;;;170.75;81.75;;;18.90;99.90;;;;;;5008823;28;20026;-69
2021/07/14 04:21:31;;;;;;;149.20;77.93;;;19.10;99.90;;;;;;5009326;28;20137;-69
2021/07/14 04:23:57;;;;;;;157.02;79.22;;;19.00;99.90;;;;;;5022339;28;20104;-69
2021/07/14 04:26:23;;;;;;;159.18;79.65;;;18.90;99.90;;;;;;5009029;28;20029;-69
2021/07/14 04:28:48;;;;;;;164.45;78.25;;;19.00;99.90;;;;;;5008984;28;20030;-69
2021/07/14 04:31:14;;;;;;;159.75;82.07;;;18.90;99.90;;;;;;5008538;28;20578;-69
2021/07/14 04:33:41;;;;;;;178.52;82.70;;;18.90;99.90;;;;;;5008871;28;20496;-69
2021/07/14 04:36:08;;;;;;;220.27;91.50;;;19.00;99.90;;;;;;5008337;28;20026;-69
2021/07/14 04:38:35;;;;;;;168.65;83.63;;;18.90;99.90;;;;;;5008669;28;20064;-69
2021/07/14 04:41:00;;;;;;;177.82;80.30;;;18.90;99.90;;;;;;5024519;28;20034;-69
2021/07/14 04:43:26;;;;;;;129.85;71.25;;;18.90;99.90;;;;;;5028271;28;20116;-69
2021/07/14 04:45:51;;;;;;;159.77;77.40;;;18.90;99.90;;;;;;5026841;28;20047;-69
2021/07/14 04:48:17;;;;;;;124.03;67.07;;;18.90;99.90;;;;;;5023445;28;20037;-69
2021/07/14 04:50:43;;;;;;;167.55;75.25;;;19.00;99.90;;;;;;5022481;28;20072;-69
2021/07/14 04:53:09;;;;;;;135.02;69.32;;;18.90;99.90;;;;;;5026620;28;20036;-69
2021/07/14 04:55:34;;;;;;;143.93;71.93;;;19.00;99.90;;;;;;5017908;28;20113;-69
2021/07/14 04:58:00;;;;;;;114.55;62.65;;;19.00;99.90;;;;;;5009270;28;20105;-69
2021/07/14 05:00:25;;;;;;;131.60;68.15;;;19.10;99.90;;;;;;5008728;28;20109;-69
2021/07/14 05:02:51;;;;;;;134.90;69.75;;;19.00;99.90;;;;;;5008505;28;20175;-69
2021/07/14 05:05:17;;;;;;;130.57;67.97;;;19.00;99.90;;;;;;5011522;28;20026;-69
2021/07/14 05:07:44;;;;;;;138.20;69.13;;;19.00;99.90;;;;;;5008444;28;20046;-69
2021/07/14 05:10:09;;;;;;;169.68;76.53;;;18.90;99.90;;;;;;5008138;28;20037;-69
2021/07/14 05:12:35;;;;;;;161.68;77.90;;;19.00;99.90;;;;;;5011969;28;20039;-69
2021/07/14 05:15:00;;;;;;;141.95;74.97;;;19.00;99.90;;;;;;5009133;28;20029;-70
2021/07/14 05:17:26;;;;;;;136.50;72.47;;;18.90;99.90;;;;;;5022104;28;20026;-69
2021/07/14 05:19:53;;;;;;;132.00;70.40;;;19.00;99.90;;;;;;5010009;28;20026;-69
2021/07/14 05:22:20;;;;;;;147.07;74.03;;;19.00;99.90;;;;;;5023255;28;20515;-69
2021/07/14 05:24:45;;;;;;;131.73;71.18;;;19.00;99.90;;;;;;5024792;28;20124;-69
2021/07/14 05:27:11;;;;;;;181.52;80.47;;;19.00;99.90;;;;;;5012301;28;20117;-69
2021/07/14 05:29:37;;;;;;;122.78;68.25;;;19.10;99.90;;;;;;5020860;28;20049;-69
2021/07/14 05:32:04;;;;;;;126.82;70.25;;;19.00;99.90;;;;;;5021894;28;20030;-69
2021/07/14 05:34:31;;;;;;;138.70;71.63;;;19.00;99.90;;;;;;5015152;28;20028;-69
2021/07/14 05:36:58;;;;;;;136.85;72.28;;;19.10;99.90;;;;;;5005713;28;20556;-69
2021/07/14 05:39:24;;;;;;;134.27;71.10;;;19.00;99.90;;;;;;5008100;28;20025;-69
2021/07/14 05:41:50;;;;;;;129.35;71.03;;;19.00;99.90;;;;;;4999239;28;20133;-69
2021/07/14 05:44:16;;;;;;;137.02;73.20;;;19.00;99.90;;;;;;5006737;28;20022;-69
2021/07/14 05:46:46;;;;;;;137.43;74.13;;;18.90;99.90;;;;;;5007780;28;20034;-69
2021/07/14 05:49:12;;;;;;;134.40;72.30;;;19.00;99.90;;;;;;5008079;28;20021;-69
2021/07/14 05:51:39;;;;;;;128.05;69.60;;;19.00;99.90;;;;;;5014372;28;20112;-69
2021/07/14 05:54:07;;;;;;;133.48;71.43;;;18.20;99.90;;;;;;5011429;28;20036;-68
2021/07/14 05:56:36;;;;;;;118.20;67.20;;;19.00;99.90;;;;;;5012871;28;20472;-69
2021/07/14 05:59:02;;;;;;;121.00;68.45;;;19.00;99.90;;;;;;5004593;28;20022;-68
2021/07/14 06:01:28;;;;;;;125.57;69.82;;;19.00;99.90;;;;;;5014310;28;20034;-68
2021/07/14 06:03:54;;;;;;;129.10;73.25;;;19.00;99.90;;;;;;5011125;28;20025;-71
2021/07/14 06:06:20;;;;;;;125.43;71.78;;;19.00;99.90;;;;;;5012622;28;20046;-67
2021/07/14 06:08:45;;;;;;;122.30;70.57;;;19.00;99.90;;;;;;5025488;28;20060;-69
2021/07/14 06:11:11;;;;;;;139.80;72.97;;;19.00;99.90;;;;;;5021587;28;20460;-68
2021/07/14 06:13:38;;;;;;;112.40;68.20;;;19.00;99.90;;;;;;5021472;28;20069;-68
2021/07/14 06:16:04;;;;;;;111.90;65.07;;;19.00;99.90;;;;;;5023399;28;20029;-70
2021/07/14 06:18:30;;;;;;;130.40;69.70;;;19.00;99.90;;;;;;4990106;28;20561;-70
2021/07/14 06:20:57;;;;;;;133.88;73.10;;;18.90;99.90;;;;;;5015908;28;20141;-70
2021/07/14 06:23:23;;;;;;;130.52;71.57;;;19.00;99.90;;;;;;4995399;28;20034;-69
2021/07/14 06:25:51;;;;;;;114.78;67.22;;;19.00;99.90;;;;;;5012832;28;20029;-70
2021/07/14 06:28:17;;;;;;;125.18;68.00;;;19.00;99.90;;;;;;5008540;28;20108;-70
2021/07/14 06:30:47;;;;;;;103.95;62.80;;;19.00;99.90;;;;;;5027824;28;20417;-70
2021/07/14 06:33:13;;;;;;;113.10;64.88;;;19.00;99.90;;;;;;5022661;28;20384;-69
2021/07/14 06:35:39;;;;;;;113.32;67.18;;;19.00;99.90;;;;;;5026702;28;20091;-69
2021/07/14 06:38:06;;;;;;;114.80;64.55;;;19.00;99.90;;;;;;5028030;28;20029;-69
2021/07/14 06:40:34;;;;;;;100.75;60.90;;;19.00;99.90;;;;;;5022341;28;20071;-69
2021/07/14 06:43:01;;;;;;;109.72;62.17;;;19.00;99.90;;;;;;5012989;28;20457;-69
2021/07/14 06:45:27;;;;;;;97.75;57.40;;;19.00;99.90;;;;;;5010917;28;20025;-69
2021/07/14 06:47:54;;;;;;;95.30;59.55;;;19.10;99.90;;;;;;5020076;28;20048;-69
2021/07/14 06:50:20;;;;;;;84.22;53.97;;;19.00;99.90;;;;;;5022579;28;20078;-70
2021/07/14 06:52:46;;;;;;;88.45;54.22;;;19.10;99.90;;;;;;5030587;28;20155;-69
2021/07/14 06:55:13;;;;;;;83.18;53.30;;;19.10;99.90;;;;;;5010400;28;20021;-69
2021/07/14 06:57:40;;;;;;;95.85;54.75;;;19.00;99.90;;;;;;5020466;28;20075;-69
2021/07/14 07:00:08;;;;;;;86.88;52.58;;;19.00;99.90;;;;;;5025110;28;20539;-70
2021/07/14 07:02:33;;;;;;;80.90;50.78;;;19.10;99.90;;;;;;5024905;28;20052;-69
2021/07/14 07:04:59;;;;;;;74.03;48.90;;;19.10;99.90;;;;;;5020105;28;20044;-70
2021/07/14 07:07:25;;;;;;;77.25;49.08;;;19.00;99.90;;;;;;5018113;28;20405;-70
2021/07/14 07:09:52;;;;;;;77.80;46.90;;;19.10;99.90;;;;;;5019178;28;20083;-70
2021/07/14 07:12:18;;;;;;;77.57;48.70;;;19.10;99.90;;;;;;5015315;28;20038;-70
2021/07/14 07:14:44;;;;;;;70.90;45.72;;;19.30;99.90;;;;;;5010973;28;20113;-69
2021/07/14 07:17:10;;;;;;;65.07;46.20;;;19.10;99.90;;;;;;5010171;28;20110;-69
2021/07/14 07:19:36;;;;;;;94.20;60.85;;;19.10;99.90;;;;;;5015095;28;20041;-70
2021/07/14 07:22:03;;;;;;;70.18;46.03;;;19.20;99.90;;;;;;5017129;28;20048;-70
2021/07/14 07:24:28;;;;;;;78.07;50.47;;;19.10;99.90;;;;;;5025693;28;20048;-70
2021/07/14 07:26:54;;;;;;;77.25;48.47;;;19.10;99.90;;;;;;5029798;28;20029;-70
2021/07/14 07:29:19;;;;;;;78.13;51.38;;;19.10;99.90;;;;;;5019171;28;20030;-70
2021/07/14 07:31:45;;;;;;;74.10;48.72;;;19.10;99.90;;;;;;5010570;28;20038;-69
2021/07/14 07:34:11;;;;;;;67.72;44.35;;;19.10;99.90;;;;;;5024357;28;20021;-70
2021/07/14 07:36:36;;;;;;;66.60;43.80;;;19.20;99.90;;;;;;5023350;28;20032;-69
2021/07/14 07:39:04;;;;;;;76.38;45.65;;;19.10;99.90;;;;;;5025288;28;20476;-69
2021/07/14 07:41:30;;;;;;;66.07;41.97;;;18.30;99.90;;;;;;5017938;28;20116;-69
2021/07/14 07:43:55;;;;;;;61.47;41.95;;;19.10;99.90;;;;;;5016304;28;20156;-69
2021/07/14 07:46:21;;;;;;;63.55;42.25;;;19.00;99.90;;;;;;5013085;28;20476;-69
2021/07/14 07:48:47;;;;;;;64.10;41.88;;;19.00;99.90;;;;;;5009734;28;20115;-69
2021/07/14 07:51:12;;;;;;;63.40;40.30;;;19.10;99.90;;;;;;5009961;28;20917;-69
2021/07/14 07:53:38;;;;;;;65.55;43.78;;;19.10;99.90;;;;;;5010182;28;20526;-69
2021/07/14 07:56:04;;;;;;;52.53;37.17;;;19.10;99.90;;;;;;5018897;28;20030;-69
2021/07/14 07:58:30;;;;;;;55.28;37.42;;;19.10;99.90;;;;;;5024942;28;20477;-69
2021/07/14 08:00:55;;;;;;;57.25;39.15;;;19.10;99.90;;;;;;5009788;28;20030;-69
2021/07/14 08:03:21;;;;;;;56.00;38.35;;;19.20;99.90;;;;;;5015499;28;20030;-68
2021/07/14 08:05:49;;;;;;;50.65;35.10;;;19.80;99.90;;;;;;5026133;28;20472;-67
2021/07/14 08:08:16;;;;;;;47.30;34.25;;;19.20;99.90;;;;;;5020388;28;20030;-70
2021/07/14 08:10:42;;;;;;;58.70;39.53;;;19.20;99.90;;;;;;5010828;28;20423;-71
2021/07/14 08:13:07;;;;;;;58.25;38.65;;;19.10;99.90;;;;;;5020303;28;20029;-70
2021/07/14 08:15:33;;;;;;;62.92;40.70;;;19.10;99.90;;;;;;5021835;28;20033;-71
2021/07/14 08:17:58;;;;;;;67.03;43.20;;;19.10;99.90;;;;;;5023959;28;20415;-73
2021/07/14 08:20:24;;;;;;;64.47;42.22;;;19.00;99.90;;;;;;5018500;28;20128;-74
2021/07/14 08:22:54;;;;;;;58.33;39.47;;;19.10;99.90;;;;;;5015717;28;20125;-74
2021/07/14 08:25:19;;;;;;;55.90;37.17;;;19.10;99.90;;;;;;5016383;28;20101;-73
2021/07/14 08:27:45;;;;;;;51.67;34.83;;;19.10;99.90;;;;;;5017639;28;20696;-73
2021/07/14 08:30:11;;;;;;;48.97;30.33;;;19.00;99.90;;;;;;5015661;28;20080;-73
2021/07/14 08:32:37;;;;;;;42.28;27.70;;;19.00;99.90;;;;;;5013787;28;20026;-74
2021/07/14 08:35:03;;;;;;;36.92;24.27;;;19.00;99.90;;;;;;5028514;28;20024;-73
2021/07/14 08:37:28;;;;;;;36.67;23.27;;;18.90;99.90;;;;;;5023950;28;20037;-74
2021/07/14 08:39:55;;;;;;;36.55;22.48;;;18.70;99.90;;;;;;5023115;28;20026;-73
2021/07/14 08:42:21;;;;;;;42.92;24.55;;;18.80;99.90;;;;;;5009716;28;20535;-73
2021/07/14 08:44:47;;;;;;;30.55;19.67;;;18.80;99.90;;;;;;5018822;28;20415;-73
2021/07/14 08:47:13;;;;;;;29.20;19.02;;;18.70;99.90;;;;;;5014406;28;20488;-72
2021/07/14 08:49:43;;;;;;;25.08;17.00;;;18.70;99.90;;;;;;5022350;28;20088;-73
2021/07/14 08:52:09;;;;;;;30.52;18.98;;;18.70;99.90;;;;;;5013669;28;20034;-73
2021/07/14 08:54:41;;;;;;;34.45;21.20;;;18.70;99.90;;;;;;5009010;28;20108;-72
2021/07/14 08:57:07;;;;;;;27.15;19.50;;;18.70;99.90;;;;;;5013805;28;20029;-73
2021/07/14 08:59:33;;;;;;;36.33;22.25;;;18.60;99.90;;;;;;5008804;28;20464;-73
2021/07/14 09:01:58;;;;;;;27.40;19.23;;;18.70;99.90;;;;;;5012651;28;20068;-72
2021/07/14 09:04:24;;;;;;;27.10;19.05;;;18.70;99.90;;;;;;5018158;28;20060;-71
2021/07/14 09:06:49;;;;;;;22.73;18.13;;;18.70;99.90;;;;;;5016487;28;20496;-72
2021/07/14 09:09:15;;;;;;;26.90;18.52;;;18.80;99.90;;;;;;5017150;28;20048;-73
2021/07/14 09:11:52;;;;;;;27.67;19.92;;;18.70;99.90;;;;;;5019269;28;20064;-73
2021/07/14 09:14:30;;;;;;;22.05;18.00;;;18.80;99.90;;;;;;4999549;28;20469;-74
2021/07/14 09:16:55;;;;;;;26.77;20.30;;;18.80;99.90;;;;;;5020477;28;20027;-75
2021/07/14 09:19:26;;;;;;;29.58;21.13;;;18.90;99.90;;;;;;5008174;28;20018;-74
2021/07/14 09:21:51;;;;;;;34.25;26.30;;;18.90;99.90;;;;;;5012679;28;20026;-73
2021/07/14 09:24:28;;;;;;;18.20;14.55;;;18.90;99.90;;;;;;5013401;28;20022;-73
2021/07/14 09:26:55;;;;;;;19.80;16.88;;;19.00;99.90;;;;;;5014444;28;20053;-74
2021/07/14 09:29:20;;;;;;;18.33;13.15;;;18.90;99.90;;;;;;5014208;28;20094;-75
2021/07/14 09:31:46;;;;;;;21.67;17.13;;;18.80;99.90;;;;;;5013651;28;20214;-74
2021/07/14 09:34:25;;;;;;;13.75;11.65;;;18.90;99.90;;;;;;5020489;28;20075;-75
2021/07/14 09:36:54;;;;;;;15.98;13.60;;;18.80;99.90;;;;;;5011849;28;20033;-74
2021/07/14 09:39:30;;;;;;;18.38;15.02;;;18.80;99.90;;;;;;5013786;28;20022;-74
2021/07/14 09:42:07;;;;;;;14.10;10.90;;;18.90;99.90;;;;;;5006898;28;20056;-75
2021/07/14 09:44:33;;;;;;;16.10;12.80;;;18.80;99.90;;;;;;5014397;28;20037;-74
2021/07/14 09:47:18;;;;;;;14.43;10.80;;;18.90;99.90;;;;;;5020140;28;20022;-74
2021/07/14 09:49:44;;;;;;;17.05;11.90;;;18.80;99.90;;;;;;5022070;28;20052;-74
2021/07/14 09:52:16;;;;;;;16.83;12.50;;;19.40;99.90;;;;;;5022840;28;20660;-74
2021/07/14 09:54:42;;;;;;;17.08;12.52;;;18.80;99.90;;;;;;5015826;28;20412;-72
2021/07/14 09:57:12;;;;;;;18.35;15.40;;;18.80;99.90;;;;;;5022367;28;20028;-74
2021/07/14 09:59:38;;;;;;;20.42;14.57;;;18.70;99.90;;;;;;5015241;28;20472;-73
2021/07/14 10:02:04;;;;;;;18.60;14.85;;;18.80;99.90;;;;;;5022247;28;20057;-74
2021/07/14 10:04:32;;;;;;;17.70;13.50;;;18.80;99.90;;;;;;5014371;28;20080;-74
2021/07/14 10:07:11;;;;;;;17.77;13.93;;;18.90;99.90;;;;;;5023597;28;20107;-74
2021/07/14 10:09:38;;;;;;;20.00;14.27;;;18.90;99.90;;;;;;5023039;28;20088;-74
2021/07/14 10:12:25;;;;;;;21.45;15.95;;;18.90;99.90;;;;;;5023473;28;20121;-73
2021/07/14 10:14:51;;;;;;;31.35;23.70;;;18.80;99.90;;;;;;5023399;28;20014;-74
2021/07/14 15:01:23;;;;;;;44.97;30.55;;;22.00;99.90;;;;;;5048328;28;20738;-74
2021/07/14 15:03:48;;;;;;;44.22;30.90;;;22.20;99.60;;;;;;5062349;28;20079;-71
2021/07/14 15:06:14;;;;;;;38.05;27.85;;;22.30;99.60;;;;;;5050924;28;20025;-68
2021/07/14 15:28:44;;;;;;;28.63;22.48;;;23.80;96.10;;;;;;4999452;28;20408;-68
2021/07/14 15:31:12;;;;;;;31.27;24.40;;;23.40;96.40;;;;;;5031942;28;20061;-68
2021/07/14 15:33:37;;;;;;;32.22;24.70;;;23.10;97.00;;;;;;5022204;28;20029;-68
2021/07/14 15:36:03;;;;;;;32.03;25.42;;;22.90;97.40;;;;;;5021123;28;20411;-67
2021/07/14 15:38:29;;;;;;;31.70;25.95;;;22.70;97.80;;;;;;5019966;28;20029;-69
2021/07/14 15:40:55;;;;;;;34.55;26.15;;;22.60;98.20;;;;;;5011121;28;20029;-69
2021/07/14 15:43:21;;;;;;;33.08;24.25;;;22.50;98.20;;;;;;5013725;28;20035;-71
2021/07/14 15:46:10;;;;;;;31.30;25.40;;;22.50;98.30;;;;;;5014045;28;20120;-71
2021/07/14 15:48:35;;;;;;;32.92;23.58;;;22.40;98.40;;;;;;5008679;28;20045;-74
2021/07/14 15:51:05;;;;;;;29.05;22.17;;;22.40;98.50;;;;;;5015320;28;20465;-72
2021/07/14 15:53:31;;;;;;;33.80;24.23;;;22.40;98.60;;;;;;5000634;28;20038;-74
2021/07/14 15:55:56;;;;;;;28.95;22.92;;;22.40;98.50;;;;;;5003838;28;20179;-75
2021/07/14 15:58:22;;;;;;;29.45;22.65;;;22.40;98.50;;;;;;5004434;28;20034;-75
2021/07/14 16:00:47;;;;;;;31.40;24.00;;;22.30;98.50;;;;;;5003183;28;20109;-74
2021/07/14 16:03:13;;;;;;;31.27;24.05;;;22.30;98.60;;;;;;5024326;28;20017;-73
2021/07/14 16:05:42;;;;;;;28.85;23.33;;;22.30;98.60;;;;;;5022835;28;20052;-72
2021/07/14 16:08:08;;;;;;;33.25;24.25;;;22.30;98.60;;;;;;5020576;28;20065;-72
2021/07/14 16:10:33;;;;;;;31.80;24.55;;;22.30;98.60;;;;;;5011196;28;20060;-73
2021/07/14 16:12:59;;;;;;;30.13;24.00;;;22.20;98.50;;;;;;5024144;28;20049;-72
2021/07/14 16:15:25;;;;;;;31.35;25.20;;;22.30;98.60;;;;;;5022960;28;20104;-72
2021/07/14 16:17:51;;;;;;;34.08;25.55;;;22.30;98.60;;;;;;5010711;28;20065;-72
2021/07/14 16:20:16;;;;;;;33.53;26.88;;;22.10;98.60;;;;;;5029945;28;20051;-72
2021/07/14 16:22:44;;;;;;;34.72;25.38;;;22.30;98.60;;;;;;5016800;28;20040;-70
2021/07/14 16:25:10;;;;;;;31.52;24.98;;;22.20;98.60;;;;;;5014688;28;20071;-80
2021/07/14 16:27:36;;;;;;;32.03;23.70;;;22.40;99.60;;;;;;5008420;28;20062;-71
2021/07/14 16:30:12;;;;;;;30.25;22.35;;;22.90;98.10;;;;;;5017424;28;20045;-84
2021/07/14 16:32:38;;;;;;;31.08;21.52;;;23.10;97.20;;;;;;5017270;28;20037;-77
2021/07/14 16:35:05;;;;;;;27.65;20.90;;;23.10;97.00;;;;;;5028372;28;20435;-85
2021/07/14 16:37:30;;;;;;;30.15;21.80;;;23.10;96.90;;;;;;5027876;28;20038;-82
2021/07/14 16:39:56;;;;;;;30.42;21.48;;;23.00;97.00;;;;;;5022325;28;20037;-78
2021/07/14 16:42:21;;;;;;;26.83;19.95;;;23.00;97.10;;;;;;5021052;28;20053;-79
2021/07/14 16:44:47;;;;;;;26.63;20.77;;;23.00;97.20;;;;;;5024414;28;20041;-85
2021/07/14 16:47:13;;;;;;;25.75;20.38;;;22.90;97.20;;;;;;5021204;28;20211;-85
2021/07/14 16:49:39;;;;;;;31.27;21.10;;;22.80;97.30;;;;;;5028055;28;20502;-85
2021/07/14 16:52:04;;;;;;;27.15;21.48;;;22.80;97.40;;;;;;5020874;28;20408;-84
2021/07/14 16:54:30;;;;;;;33.33;20.77;;;22.80;97.40;;;;;;5022626;28;20079;-85
2021/07/14 16:56:55;;;;;;;29.83;20.63;;;22.70;97.40;;;;;;5029338;28;20492;-85
2021/07/14 16:59:21;;;;;;;29.80;21.38;;;22.70;97.50;;;;;;5024999;28;20125;-86
2021/07/14 17:01:47;;;;;;;28.10;20.17;;;22.70;97.60;;;;;;5022013;28;20040;-83
2021/07/14 17:04:13;;;;;;;28.80;20.13;;;22.70;97.70;;;;;;5016869;28;20041;-77
2021/07/14 17:06:38;;;;;;;28.42;21.10;;;22.70;97.70;;;;;;5018259;28;20125;-83
2021/07/14 17:09:04;;;;;;;24.85;20.35;;;22.70;97.80;;;;;;5016952;28;20064;-80
2021/07/14 17:11:37;;;;;;;27.35;20.55;;;22.70;97.70;;;;;;5018777;28;20117;-80
2021/07/14 17:14:03;;;;;;;31.02;19.88;;;22.70;97.70;;;;;;5022666;28;20036;-80
2021/07/14 17:16:29;;;;;;;28.50;19.17;;;22.70;97.80;;;;;;5017145;28;20109;-79
2021/07/14 17:18:54;;;;;;;26.08;20.02;;;22.70;97.80;;;;;;5023432;28;20113;-79
2021/07/14 17:21:20;;;;;;;26.10;18.80;;;22.70;97.70;;;;;;5015258;28;20574;-83
2021/07/14 17:23:48;;;;;;;31.05;20.35;;;22.80;98.00;;;;;;5015675;28;20045;-78
2021/07/14 17:26:14;;;;;;;27.10;18.98;;;22.80;98.40;;;;;;5024485;28;20017;-77
2021/07/14 17:28:40;;;;;;;27.27;19.20;;;23.20;98.00;;;;;;5022677;28;20479;-88
2021/07/14 17:31:08;;;;;;;25.02;17.80;;;23.00;97.70;;;;;;5021161;28;20568;-84
2021/07/14 17:33:39;;;;;;;28.95;17.17;;;23.00;97.80;;;;;;5023985;28;20025;-88
2021/07/14 17:36:04;;;;;;;21.30;16.77;;;23.00;97.50;;;;;;5024811;28;20021;-81
2021/07/14 17:38:33;;;;;;;22.63;17.10;;;23.20;97.50;;;;;;5024900;28;20507;-82